createdAt,value
2018-12-17T00:02:03.597Z,70.93
2018-12-17T00:04:32.323Z,71.09
2018-12-17T00:07:00.717Z,71.25
2018-12-17T00:09:29.084Z,71.09
2018-12-17T00:11:57.472Z,70.82
2018-12-17T00:14:25.877Z,70.80
2018-12-17T00:16:54.256Z,71.13
2018-12-17T00:19:22.641Z,70.84
2018-12-17T00:21:51.073Z,70.46
2018-12-17T00:24:19.435Z,71.16
2018-12-17T00:26:47.832Z,70.88
2018-12-17T00:29:16.220Z,70.97
2018-12-17T00:31:44.613Z,70.81
2018-12-17T00:34:13.008Z,71.14
2018-12-17T00:36:41.393Z,70.79
2018-12-17T00:39:09.755Z,70.53
2018-12-17T00:41:38.152Z,69.99
2018-12-17T00:44:06.532Z,70.27
2018-12-17T00:46:34.912Z,69.86
2018-12-17T00:49:03.324Z,69.95
2018-12-17T00:51:31.804Z,70.38
2018-12-17T00:54:00.172Z,70.03
2018-12-17T00:56:28.559Z,69.91
2018-12-17T00:58:56.934Z,69.50
2018-12-17T01:01:25.419Z,69.18
2018-12-17T01:03:53.820Z,69.61
2018-12-17T01:06:22.194Z,69.47
2018-12-17T01:08:50.572Z,69.54
2018-12-17T01:11:18.961Z,69.03
2018-12-17T01:13:47.782Z,69.63
2018-12-17T01:16:16.160Z,69.23
2018-12-17T01:18:44.562Z,68.62
2018-12-17T01:21:12.940Z,69.27
2018-12-17T01:23:41.632Z,68.77
2018-12-17T01:26:10.029Z,69.34
2018-12-17T01:28:38.609Z,69.09
2018-12-17T01:31:07.018Z,69.48
2018-12-17T01:33:35.524Z,68.87
2018-12-17T01:36:04.004Z,69.37
2018-12-17T01:38:32.384Z,69.46
2018-12-17T01:41:00.884Z,68.87
2018-12-17T01:43:29.298Z,68.93
2018-12-17T01:45:57.657Z,68.74
2018-12-17T01:48:26.043Z,69.15
2018-12-17T01:50:54.432Z,69.16
2018-12-17T01:53:22.795Z,69.08
2018-12-17T01:55:51.192Z,68.78
2018-12-17T01:58:19.552Z,69.04
2018-12-17T02:00:47.952Z,69.52
2018-12-17T02:03:16.320Z,69.15
2018-12-17T02:05:44.680Z,68.84
2018-12-17T02:08:13.065Z,69.28
2018-12-17T02:10:41.432Z,68.88
2018-12-17T02:13:09.825Z,68.61
2018-12-17T02:15:38.421Z,68.83
2018-12-17T02:18:06.832Z,68.52
2018-12-17T02:20:35.198Z,68.90
2018-12-17T02:23:03.593Z,67.86
2018-12-17T02:25:32.084Z,68.73
2018-12-17T02:28:00.450Z,68.37
2018-12-17T02:30:28.836Z,69.03
2018-12-17T02:32:57.204Z,68.35
2018-12-17T02:35:25.593Z,69.05
2018-12-17T02:37:53.961Z,68.03
2018-12-17T02:40:22.333Z,68.75
2018-12-17T02:42:50.719Z,69.83
2018-12-17T02:45:19.088Z,69.45
2018-12-17T02:47:47.512Z,69.83
2018-12-17T02:50:15.886Z,71.24
2018-12-17T02:52:44.259Z,70.75
2018-12-17T02:55:12.785Z,70.70
2018-12-17T02:57:41.169Z,70.82
2018-12-17T03:00:10.244Z,70.11
2018-12-17T03:02:38.628Z,69.89
2018-12-17T03:05:07.452Z,69.70
2018-12-17T03:07:35.854Z,69.79
2018-12-17T03:10:05.025Z,69.29
2018-12-17T03:12:33.419Z,69.54
2018-12-17T03:15:01.784Z,68.97
2018-12-17T03:17:30.224Z,69.16
2018-12-17T03:19:58.685Z,69.31
2018-12-17T03:22:27.049Z,68.85
2018-12-17T03:24:55.470Z,69.36
2018-12-17T03:27:23.837Z,69.10
2018-12-17T03:29:52.239Z,69.16
2018-12-17T03:32:20.654Z,69.27
2018-12-17T03:34:49.015Z,68.67
2018-12-17T03:37:17.408Z,68.60
2018-12-17T03:39:45.778Z,68.40
2018-12-17T03:42:14.148Z,68.72
2018-12-17T03:44:42.800Z,68.13
2018-12-17T03:47:11.155Z,68.84
2018-12-17T03:49:39.567Z,68.71
2018-12-17T03:52:07.937Z,68.90
2018-12-17T03:54:36.308Z,68.86
2018-12-17T03:57:04.820Z,68.46
2018-12-17T03:59:33.185Z,68.60
2018-12-17T04:02:01.586Z,68.24
2018-12-17T04:04:30.171Z,67.31
2018-12-17T04:06:58.556Z,67.33
2018-12-17T04:09:26.963Z,67.82
2018-12-17T04:11:55.331Z,67.43
2018-12-17T04:14:23.717Z,66.96
2018-12-17T04:16:52.080Z,66.77
2018-12-17T04:19:20.482Z,66.70
2018-12-17T04:21:48.865Z,66.25
2018-12-17T04:24:17.259Z,66.19
2018-12-17T04:26:45.659Z,65.88
2018-12-17T04:29:14.025Z,67.03
2018-12-17T04:31:42.422Z,67.08
2018-12-17T04:34:10.789Z,68.08
2018-12-17T04:36:39.166Z,67.86
2018-12-17T04:39:07.584Z,67.74
2018-12-17T04:41:36.001Z,68.16
2018-12-17T04:44:04.620Z,68.07
2018-12-17T04:46:33.015Z,68.29
2018-12-17T04:49:01.529Z,68.02
2018-12-17T04:51:30.051Z,67.95
2018-12-17T04:53:58.444Z,67.63
2018-12-17T04:56:26.821Z,67.50
2018-12-17T04:58:55.207Z,67.12
2018-12-17T05:01:23.579Z,67.29
2018-12-17T05:03:51.966Z,67.27
2018-12-17T05:06:20.374Z,67.58
2018-12-17T05:08:48.771Z,67.50
2018-12-17T05:11:17.140Z,67.10
2018-12-17T05:13:45.660Z,67.71
2018-12-17T05:16:14.025Z,66.71
2018-12-17T05:18:42.403Z,67.32
2018-12-17T05:21:10.795Z,67.35
2018-12-17T05:23:39.162Z,67.43
2018-12-17T05:26:07.551Z,67.48
2018-12-17T05:28:35.928Z,67.91
2018-12-17T05:31:04.316Z,67.73
2018-12-17T05:33:32.821Z,67.86
2018-12-17T05:36:01.513Z,67.53
2018-12-17T05:38:30.051Z,68.16
2018-12-17T05:40:58.537Z,67.97
2018-12-17T05:43:26.929Z,68.85
2018-12-17T05:45:55.324Z,68.62
2018-12-17T05:48:23.695Z,68.37
2018-12-17T05:50:52.080Z,68.94
2018-12-17T05:53:20.442Z,68.45
2018-12-17T05:55:48.810Z,68.64
2018-12-17T05:58:17.200Z,68.62
2018-12-17T06:00:45.570Z,68.51
2018-12-17T06:03:13.985Z,69.21
2018-12-17T06:05:42.344Z,67.87
2018-12-17T06:08:13.097Z,68.73
2018-12-17T06:10:41.524Z,67.94
2018-12-17T06:13:09.891Z,67.29
2018-12-17T06:15:38.276Z,67.69
2018-12-17T06:18:06.644Z,68.35
2018-12-17T06:20:35.300Z,68.51
2018-12-17T06:23:03.784Z,69.02
2018-12-17T06:25:32.156Z,69.35
2018-12-17T06:28:00.549Z,69.51
2018-12-17T06:30:28.920Z,69.07
2018-12-17T06:32:57.321Z,69.53
2018-12-17T06:35:25.696Z,69.51
2018-12-17T06:37:54.060Z,69.34
2018-12-17T06:40:22.464Z,69.64
2018-12-17T06:42:50.837Z,69.94
2018-12-17T06:45:19.240Z,68.25
2018-12-17T06:47:47.609Z,68.45
2018-12-17T06:50:15.985Z,67.91
2018-12-17T06:52:44.381Z,68.62
2018-12-17T06:55:12.765Z,68.61
2018-12-17T06:57:41.389Z,67.23
2018-12-17T07:00:10.048Z,68.26
2018-12-17T07:02:38.428Z,67.49
2018-12-17T07:05:07.080Z,67.92
2018-12-17T07:07:35.592Z,67.84
2018-12-17T07:10:04.614Z,67.49
2018-12-17T07:12:32.997Z,69.03
2018-12-17T07:15:01.379Z,69.56
2018-12-17T07:17:29.788Z,69.32
2018-12-17T07:19:58.183Z,69.57
2018-12-17T07:22:26.582Z,68.88
2018-12-17T07:24:55.226Z,69.12
2018-12-17T07:27:23.647Z,67.95
2018-12-17T07:29:52.336Z,68.15
2018-12-17T07:32:20.829Z,68.12
2018-12-17T07:34:49.460Z,67.79
2018-12-17T07:37:18.118Z,67.13
2018-12-17T07:39:46.872Z,67.89
2018-12-17T07:42:15.250Z,67.46
2018-12-17T07:44:43.791Z,66.79
2018-12-17T07:47:12.175Z,66.51
2018-12-17T07:49:40.608Z,66.57
2018-12-17T07:52:08.998Z,66.30
2018-12-17T07:54:37.399Z,66.36
2018-12-17T07:57:05.793Z,65.35
2018-12-17T07:59:34.319Z,65.42
2018-12-17T08:02:02.734Z,65.33
2018-12-17T08:04:31.141Z,65.18
2018-12-17T08:06:59.662Z,64.34
2018-12-17T08:09:28.041Z,64.96
2018-12-17T08:11:56.456Z,65.95
2018-12-17T08:14:24.848Z,66.30
2018-12-17T08:16:53.768Z,66.21
2018-12-17T08:19:22.136Z,66.76
2018-12-17T08:21:50.538Z,67.11
2018-12-17T08:24:18.928Z,66.60
2018-12-17T08:26:47.345Z,66.81
2018-12-17T08:29:15.774Z,66.50
2018-12-17T08:31:44.241Z,66.22
2018-12-17T08:34:12.632Z,65.27
2018-12-17T08:36:41.056Z,66.17
2018-12-17T08:39:09.442Z,66.45
2018-12-17T08:41:37.868Z,66.01
2018-12-17T08:44:06.252Z,66.48
2018-12-17T08:46:34.636Z,66.47
2018-12-17T08:49:03.040Z,66.31
2018-12-17T08:51:31.416Z,66.12
2018-12-17T08:53:59.809Z,65.75
2018-12-17T08:56:28.168Z,66.64
2018-12-17T08:58:56.548Z,67.02
2018-12-17T09:01:25.305Z,67.35
2018-12-17T09:03:53.729Z,66.81
2018-12-17T09:06:22.167Z,66.31
2018-12-17T09:08:50.544Z,65.77
2018-12-17T09:11:18.921Z,65.54
2018-12-17T09:13:47.313Z,65.43
2018-12-17T09:16:15.690Z,64.88
2018-12-17T09:18:44.088Z,64.66
2018-12-17T09:21:12.462Z,64.63
2018-12-17T09:23:40.868Z,65.28
2018-12-17T09:26:09.253Z,65.56
2018-12-17T09:28:37.655Z,65.20
2018-12-17T09:31:06.167Z,64.70
2018-12-17T09:33:34.572Z,63.99
2018-12-17T09:36:02.977Z,65.12
2018-12-17T09:38:31.396Z,64.44
2018-12-17T09:40:59.770Z,64.21
2018-12-17T09:43:28.160Z,64.96
2018-12-17T09:45:56.540Z,65.19
2018-12-17T09:48:24.935Z,65.21
2018-12-17T09:50:53.332Z,64.69
2018-12-17T09:53:21.729Z,64.41
2018-12-17T09:55:50.096Z,64.33
2018-12-17T09:58:18.488Z,64.15
2018-12-17T10:00:46.893Z,63.83
2018-12-17T10:03:15.287Z,63.32
2018-12-17T10:05:43.797Z,63.04
2018-12-17T10:08:12.173Z,62.51
2018-12-17T10:10:40.574Z,62.25
2018-12-17T10:13:08.969Z,63.32
2018-12-17T10:15:37.378Z,62.95
2018-12-17T10:18:05.799Z,62.78
2018-12-17T10:20:34.196Z,63.14
2018-12-17T10:23:02.688Z,64.44
2018-12-17T10:25:31.095Z,64.87
2018-12-17T10:27:59.497Z,64.50
2018-12-17T10:30:32.559Z,63.93
2018-12-17T10:32:58.287Z,63.99
2018-12-17T10:35:26.700Z,63.81
2018-12-17T10:37:55.077Z,64.03
2018-12-17T10:40:23.592Z,64.34
2018-12-17T10:42:51.954Z,64.51
2018-12-17T10:45:20.465Z,64.10
2018-12-17T10:47:48.848Z,64.11
2018-12-17T10:50:17.237Z,64.37
2018-12-17T10:52:45.604Z,64.75
2018-12-17T10:55:14.063Z,64.95
2018-12-17T10:57:42.449Z,65.49
2018-12-17T11:00:16.734Z,66.46
2018-12-17T11:02:45.121Z,65.92
2018-12-17T11:05:16.729Z,65.73
2018-12-17T11:07:45.216Z,66.40
2018-12-17T11:10:13.723Z,66.64
2018-12-17T11:12:42.128Z,67.11
2018-12-17T11:15:11.531Z,67.18
2018-12-17T11:17:40.358Z,67.51
2018-12-17T11:20:10.450Z,67.79
2018-12-17T11:22:38.876Z,67.28
2018-12-17T11:25:07.957Z,67.74
2018-12-17T11:27:36.481Z,67.66
2018-12-17T11:30:05.916Z,68.03
2018-12-17T11:32:34.320Z,67.52
2018-12-17T11:35:02.709Z,67.74
2018-12-17T11:37:31.092Z,67.00
2018-12-17T11:39:59.480Z,67.44
2018-12-17T11:42:27.867Z,66.79
2018-12-17T11:44:56.290Z,67.29
2018-12-17T11:47:24.677Z,66.68
2018-12-17T11:49:53.084Z,67.65
2018-12-17T11:52:21.468Z,67.52
2018-12-17T11:54:49.857Z,68.31
2018-12-17T11:58:24.476Z,69.20
2018-12-17T12:01:03.954Z,69.64
2018-12-17T12:03:33.560Z,69.48
2018-12-17T12:06:01.946Z,68.97
2018-12-17T12:08:30.436Z,68.27
2018-12-17T12:10:58.953Z,67.98
2018-12-17T12:13:27.338Z,66.87
2018-12-17T12:15:55.784Z,66.75
2018-12-17T12:18:24.147Z,67.10
2018-12-17T12:20:52.564Z,66.73
2018-12-17T12:23:20.944Z,67.15
2018-12-17T12:25:49.348Z,66.87
2018-12-17T12:28:17.713Z,66.60
2018-12-17T12:30:46.113Z,67.30
2018-12-17T12:33:14.485Z,68.06
2018-12-17T12:35:42.888Z,67.45
2018-12-17T12:38:11.264Z,68.40
2018-12-17T12:40:39.653Z,68.37
2018-12-17T12:43:08.024Z,67.85
2018-12-17T12:45:36.420Z,68.22
2018-12-17T12:48:04.788Z,67.71
2018-12-17T12:50:33.186Z,68.42
2018-12-17T12:53:01.557Z,67.48
2018-12-17T12:55:29.963Z,67.40
2018-12-17T12:58:03.539Z,68.03
2018-12-17T13:00:28.836Z,67.89
2018-12-17T13:02:57.391Z,67.69
2018-12-17T13:05:25.779Z,67.02
2018-12-17T13:07:54.177Z,67.43
2018-12-17T13:10:22.560Z,66.64
2018-12-17T13:12:50.961Z,66.99
2018-12-17T13:15:19.352Z,66.76
2018-12-17T13:17:47.768Z,66.92
2018-12-17T13:20:16.140Z,66.73
2018-12-17T13:22:44.532Z,67.29
2018-12-17T13:25:20.004Z,66.52
2018-12-17T13:27:48.401Z,66.92
2018-12-17T13:30:16.896Z,67.19
2018-12-17T13:32:45.288Z,66.83
2018-12-17T13:35:13.669Z,67.91
2018-12-17T13:37:42.084Z,67.19
2018-12-17T13:40:11.485Z,68.17
2018-12-17T13:42:39.876Z,67.89
2018-12-17T13:45:08.480Z,68.38
2018-12-17T13:47:36.999Z,67.99
2018-12-17T13:50:10.904Z,68.76
2018-12-17T13:52:44.619Z,69.01
2018-12-17T13:55:13.540Z,69.24
2018-12-17T13:57:42.008Z,69.11
2018-12-17T14:00:11.886Z,69.09
2018-12-17T14:02:40.344Z,69.30
2018-12-17T14:05:08.738Z,69.56
2018-12-17T14:07:37.109Z,69.34
2018-12-17T14:10:12.656Z,69.35
2018-12-17T14:12:41.112Z,68.78
2018-12-17T14:15:09.743Z,69.26
2018-12-17T14:17:40.120Z,69.33
2018-12-17T14:20:14.412Z,69.03
2018-12-17T14:22:42.801Z,69.14
2018-12-17T14:25:11.190Z,69.33
2018-12-17T14:27:39.560Z,70.08
2018-12-17T14:30:09.819Z,70.41
2018-12-17T14:32:38.216Z,70.41
2018-12-17T14:35:06.872Z,71.04
2018-12-17T14:37:37.320Z,69.76
2018-12-17T14:40:07.155Z,69.92
2018-12-17T14:42:35.544Z,69.96
2018-12-17T14:45:04.701Z,69.49
2018-12-17T14:47:33.112Z,69.08
2018-12-17T14:50:01.505Z,68.76
2018-12-17T14:52:29.867Z,68.82
2018-12-17T14:54:58.270Z,69.41
2018-12-17T14:57:26.634Z,69.56
2018-12-17T14:59:55.020Z,69.52
2018-12-17T15:02:23.477Z,69.36
2018-12-17T15:04:51.909Z,69.67
2018-12-17T15:07:20.413Z,69.46
2018-12-17T15:09:48.880Z,70.11
2018-12-17T15:12:17.344Z,69.64
2018-12-17T15:14:45.709Z,69.77
2018-12-17T15:17:14.224Z,70.67
2018-12-17T15:19:42.645Z,70.20
2018-12-17T15:22:11.055Z,70.22
2018-12-17T15:24:40.516Z,69.78
2018-12-17T15:27:09.317Z,70.55
2018-12-17T15:29:37.716Z,69.84
2018-12-17T15:32:06.109Z,70.46
2018-12-17T15:34:34.504Z,69.73
2018-12-17T15:37:02.962Z,70.03
2018-12-17T15:39:31.360Z,70.28
2018-12-17T15:41:59.843Z,70.63
2018-12-17T15:44:29.008Z,70.61
2018-12-17T15:46:57.467Z,69.94
2018-12-17T15:49:25.840Z,70.26
2018-12-17T15:51:54.224Z,70.42
2018-12-17T15:54:22.609Z,70.37
2018-12-17T15:56:51.014Z,70.64
2018-12-17T15:59:19.853Z,70.63
2018-12-17T16:01:50.158Z,70.62
2018-12-17T16:04:18.704Z,70.37
2018-12-17T16:06:47.085Z,70.48
2018-12-17T16:09:15.540Z,70.24
2018-12-17T16:11:44.076Z,70.50
2018-12-17T16:14:12.484Z,70.59
2018-12-17T16:16:40.876Z,70.29
2018-12-17T16:19:09.283Z,70.85
2018-12-17T16:21:38.209Z,70.24
2018-12-17T16:24:06.784Z,70.60
2018-12-17T16:26:35.227Z,70.67
2018-12-17T16:29:03.746Z,70.62
2018-12-17T16:31:32.132Z,70.31
2018-12-17T16:34:00.536Z,69.99
2018-12-17T16:36:28.956Z,70.31
2018-12-17T16:38:57.366Z,70.57
2018-12-17T16:41:25.745Z,70.12
2018-12-17T16:43:54.560Z,70.63
2018-12-17T16:46:22.937Z,71.04
2018-12-17T16:48:51.334Z,70.85
2018-12-17T16:51:19.749Z,71.04
2018-12-17T16:53:48.150Z,71.25
2018-12-17T16:56:16.605Z,70.34
2018-12-17T16:58:45.017Z,70.44
2018-12-17T17:01:13.430Z,71.42
2018-12-17T17:03:41.849Z,71.36
2018-12-17T17:06:10.232Z,70.84
2018-12-17T17:08:38.610Z,70.74
2018-12-17T17:11:07.161Z,72.35
2018-12-17T17:13:35.647Z,71.57
2018-12-17T17:16:04.238Z,71.02
2018-12-17T17:18:32.622Z,70.70
2018-12-17T17:21:01.028Z,70.84
2018-12-17T17:23:29.532Z,71.22
2018-12-17T17:25:57.900Z,71.58
2018-12-17T17:28:26.293Z,71.41
2018-12-17T17:30:54.672Z,71.86
2018-12-17T17:33:23.065Z,71.91
2018-12-17T17:35:51.448Z,72.46
2018-12-17T17:38:19.861Z,72.11
2018-12-17T17:40:48.244Z,71.78
2018-12-17T17:43:16.776Z,72.49
2018-12-17T17:45:45.277Z,72.16
2018-12-17T17:48:13.705Z,73.17
2018-12-17T17:50:42.080Z,72.73
2018-12-17T17:53:10.583Z,72.95
2018-12-17T17:55:39.069Z,73.57
2018-12-17T17:58:07.466Z,73.75
2018-12-17T18:00:35.901Z,73.17
2018-12-17T18:03:04.733Z,73.41
2018-12-17T18:05:33.180Z,73.75
2018-12-17T18:08:01.558Z,73.91
2018-12-17T18:10:29.948Z,73.34
2018-12-17T18:12:58.346Z,73.59
2018-12-17T18:15:26.806Z,74.13
2018-12-17T18:17:55.216Z,74.27
2018-12-17T18:20:23.641Z,74.58
2018-12-17T18:22:52.033Z,74.01
2018-12-17T18:25:20.468Z,74.55
2018-12-17T18:27:48.861Z,75.26
2018-12-17T18:30:17.248Z,74.72
2018-12-17T18:32:45.707Z,75.18
2018-12-17T18:35:14.250Z,75.40
2018-12-17T18:37:42.663Z,75.63
2018-12-17T18:40:11.052Z,76.02
2018-12-17T18:42:39.474Z,75.96
2018-12-17T18:45:08.367Z,76.43
2018-12-17T18:47:38.575Z,76.84
2018-12-17T18:50:07.598Z,76.63
2018-12-17T18:52:35.988Z,76.99
2018-12-17T18:55:04.682Z,76.38
2018-12-17T18:57:33.131Z,76.89
2018-12-17T19:00:01.545Z,76.58
2018-12-17T19:02:32.979Z,77.31
2018-12-17T19:05:00.433Z,77.31
2018-12-17T19:07:28.889Z,77.35
2018-12-17T19:09:57.332Z,76.92
2018-12-17T19:12:25.792Z,76.94
2018-12-17T19:14:54.570Z,76.73
2018-12-17T19:17:23.076Z,76.42
2018-12-17T19:19:51.448Z,76.85
2018-12-17T19:22:19.852Z,76.59
2018-12-17T19:24:48.253Z,76.94
2018-12-17T19:27:16.777Z,76.74
2018-12-17T19:29:45.168Z,75.83
2018-12-17T19:32:13.593Z,76.41
2018-12-17T19:34:41.956Z,76.09
2018-12-17T19:37:10.385Z,76.36
2018-12-17T19:39:38.809Z,76.16
2018-12-17T19:42:07.240Z,75.89
2018-12-17T19:44:35.956Z,76.01
2018-12-17T19:47:04.360Z,76.18
2018-12-17T19:49:32.816Z,76.34
2018-12-17T19:52:01.304Z,75.17
2018-12-17T19:54:29.694Z,75.32
2018-12-17T19:56:58.786Z,75.91
2018-12-17T19:59:27.177Z,75.62
2018-12-17T20:01:55.603Z,76.16
2018-12-17T20:04:23.996Z,75.68
2018-12-17T20:06:52.716Z,75.16
2018-12-17T20:09:21.178Z,75.16
2018-12-17T20:11:49.583Z,75.50
2018-12-17T20:14:18.023Z,76.06
2018-12-17T20:16:46.428Z,75.95
2018-12-17T20:19:14.836Z,75.83
2018-12-17T20:21:43.364Z,75.82
2018-12-17T20:24:11.781Z,75.29
2018-12-17T20:26:40.785Z,75.77
2018-12-17T20:29:09.560Z,75.83
2018-12-17T20:31:38.065Z,75.25
2018-12-17T20:34:06.449Z,75.49
2018-12-17T20:36:34.824Z,75.65
2018-12-17T20:39:04.314Z,75.53
2018-12-17T20:41:32.685Z,75.28
2018-12-17T20:44:01.124Z,75.53
2018-12-17T20:46:29.510Z,75.09
2018-12-17T20:48:57.933Z,75.90
2018-12-17T20:51:26.308Z,75.56
2018-12-17T20:53:54.729Z,76.30
2018-12-17T20:56:23.098Z,75.74
2018-12-17T20:58:51.499Z,75.78
2018-12-17T21:01:19.876Z,76.08
2018-12-17T21:03:48.284Z,75.31
2018-12-17T21:06:16.732Z,75.16
2018-12-17T21:08:45.116Z,75.08
2018-12-17T21:11:13.643Z,74.88
2018-12-17T21:13:42.131Z,75.04
2018-12-17T21:16:10.541Z,75.31
2018-12-17T21:18:38.941Z,74.94
2018-12-17T21:21:07.317Z,75.25
2018-12-17T21:23:35.933Z,74.80
2018-12-17T21:26:04.372Z,74.68
2018-12-17T21:28:32.771Z,75.73
2018-12-17T21:31:01.153Z,75.77
2018-12-17T21:33:29.586Z,75.21
2018-12-17T21:35:57.980Z,74.94
2018-12-17T21:38:26.370Z,74.90
2018-12-17T21:40:54.781Z,74.76
2018-12-17T21:43:23.161Z,74.28
2018-12-17T21:45:51.535Z,74.95
2018-12-17T21:48:19.932Z,74.73
2018-12-17T21:50:48.337Z,74.49
2018-12-17T21:53:20.444Z,74.85
2018-12-17T21:55:49.308Z,74.70
2018-12-17T21:58:17.737Z,75.17
2018-12-17T22:00:46.148Z,74.63
2018-12-17T22:03:14.535Z,75.05
2018-12-17T22:05:42.938Z,74.64
2018-12-17T22:08:11.326Z,74.54
2018-12-17T22:10:39.718Z,74.21
2018-12-17T22:13:08.124Z,74.24
2018-12-17T22:15:36.511Z,73.92
2018-12-17T22:18:04.911Z,74.14
2018-12-17T22:20:33.356Z,74.40
2018-12-17T22:23:01.741Z,74.24
2018-12-17T22:25:30.116Z,73.91
2018-12-17T22:27:58.540Z,73.87
2018-12-17T22:30:26.917Z,73.98
2018-12-17T22:32:55.341Z,74.48
2018-12-17T22:35:23.757Z,74.82
2018-12-17T22:37:52.163Z,74.89
2018-12-17T22:40:20.538Z,73.69
2018-12-17T22:42:49.055Z,73.78
2018-12-17T22:45:18.535Z,74.26
2018-12-17T22:47:47.180Z,73.77
2018-12-17T22:50:15.820Z,73.47
2018-12-17T22:52:44.312Z,74.02
2018-12-17T22:55:12.767Z,74.09
2018-12-17T22:57:41.294Z,73.63
2018-12-17T23:00:10.257Z,73.18
2018-12-17T23:02:38.644Z,72.76
2018-12-17T23:05:07.309Z,75.50
2018-12-17T23:07:35.914Z,73.29
2018-12-17T23:10:15.877Z,73.04
2018-12-17T23:12:55.587Z,72.65
2018-12-17T23:15:35.163Z,72.15
2018-12-17T23:18:02.792Z,72.16
2018-12-17T23:20:31.307Z,71.95
2018-12-17T23:22:59.827Z,71.75
2018-12-17T23:25:28.200Z,71.61
2018-12-17T23:27:56.573Z,71.91
2018-12-17T23:30:24.975Z,72.19
2018-12-17T23:32:53.589Z,71.79
2018-12-17T23:35:21.961Z,71.57
2018-12-17T23:37:50.367Z,71.41
2018-12-17T23:40:18.766Z,72.91
2018-12-17T23:42:47.182Z,72.64
2018-12-17T23:45:18.945Z,71.03
2018-12-17T23:47:47.579Z,71.36
2018-12-17T23:50:15.993Z,71.76
2018-12-17T23:52:44.364Z,71.27
2018-12-17T23:55:12.756Z,70.60
2018-12-17T23:57:41.128Z,71.48
